sensor_id;sensor_type;location;lat;lon;timestamp;pressure;altitude;pressure_sealevel;temperature;humidity
79028;BME280;68427;48.476;19.102;2023-09-19T00:01:34;97019.88;;;18.37;80.96
79028;BME280;68427;48.476;19.102;2023-09-19T00:04:02;97024.06;;;18.33;84.80
79028;BME280;68427;48.476;19.102;2023-09-19T00:06:28;97020.09;;;18.30;85.73
79028;BME280;68427;48.476;19.102;2023-09-19T00:08:57;97022.50;;;18.32;83.92
79028;BME280;68427;48.476;19.102;2023-09-19T00:11:24;97012.94;;;18.31;84.46
79028;BME280;68427;48.476;19.102;2023-09-19T00:13:52;97012.16;;;18.35;82.44
79028;BME280;68427;48.476;19.102;2023-09-19T00:16:18;97016.41;;;18.37;82.52
79028;BME280;68427;48.476;19.102;2023-09-19T00:18:44;97018.81;;;18.38;80.96
79028;BME280;68427;48.476;19.102;2023-09-19T00:21:11;97016.97;;;18.39;82.85
79028;BME280;68427;48.476;19.102;2023-09-19T00:23:37;97013.78;;;18.42;80.84
79028;BME280;68427;48.476;19.102;2023-09-19T00:26:03;97013.78;;;18.42;81.68
79028;BME280;68427;48.476;19.102;2023-09-19T00:28:29;97006.91;;;18.46;81.51
79028;BME280;68427;48.476;19.102;2023-09-19T00:30:55;97004.25;;;18.46;80.99
79028;BME280;68427;48.476;19.102;2023-09-19T00:33:21;96991.28;;;18.49;80.93
79028;BME280;68427;48.476;19.102;2023-09-19T00:35:48;97002.97;;;18.48;83.63
79028;BME280;68427;48.476;19.102;2023-09-19T00:38:15;97002.41;;;18.46;82.94
79028;BME280;68427;48.476;19.102;2023-09-19T00:40:43;96994.69;;;18.40;83.28
79028;BME280;68427;48.476;19.102;2023-09-19T00:43:09;97002.09;;;18.38;83.37
79028;BME280;68427;48.476;19.102;2023-09-19T00:45:36;96993.59;;;18.35;83.72
79028;BME280;68427;48.476;19.102;2023-09-19T00:48:04;96995.19;;;18.31;84.91
79028;BME280;68427;48.476;19.102;2023-09-19T00:50:31;96993.06;;;18.28;84.49
79028;BME280;68427;48.476;19.102;2023-09-19T00:52:58;96999.38;;;18.27;85.25
79028;BME280;68427;48.476;19.102;2023-09-19T00:55:25;97001.50;;;18.25;83.55
79028;BME280;68427;48.476;19.102;2023-09-19T00:57:55;96997.25;;;18.24;84.00
79028;BME280;68427;48.476;19.102;2023-09-19T01:00:21;96995.69;;;18.28;83.45
79028;BME280;68427;48.476;19.102;2023-09-19T01:02:48;96991.22;;;18.34;81.56
79028;BME280;68427;48.476;19.102;2023-09-19T01:05:14;96985.13;;;18.33;83.01
79028;BME280;68427;48.476;19.102;2023-09-19T01:07:41;96982.22;;;18.40;80.13
79028;BME280;68427;48.476;19.102;2023-09-19T01:10:09;96983.56;;;18.43;81.82
79028;BME280;68427;48.476;19.102;2023-09-19T01:12:45;96988.09;;;18.47;80.03
79028;BME280;68427;48.476;19.102;2023-09-19T01:15:19;96986.00;;;18.49;79.88
79028;BME280;68427;48.476;19.102;2023-09-19T01:17:53;96984.41;;;18.48;81.59
79028;BME280;68427;48.476;19.102;2023-09-19T01:20:31;96986.75;;;18.45;81.95
79028;BME280;68427;48.476;19.102;2023-09-19T01:23:10;96980.38;;;18.41;82.63
79028;BME280;68427;48.476;19.102;2023-09-19T01:26:03;96984.59;;;18.37;82.30
79028;BME280;68427;48.476;19.102;2023-09-19T01:28:51;96986.72;;;18.40;82.78
79028;BME280;68427;48.476;19.102;2023-09-19T01:31:24;96978.47;;;18.26;84.37
79028;BME280;68427;48.476;19.102;2023-09-19T01:33:54;96980.31;;;18.30;82.98
79028;BME280;68427;48.476;19.102;2023-09-19T01:36:26;96979.28;;;18.31;82.02
79028;BME280;68427;48.476;19.102;2023-09-19T01:38:52;96980.84;;;18.32;82.33
79028;BME280;68427;48.476;19.102;2023-09-19T01:41:23;96976.34;;;18.33;81.97
79028;BME280;68427;48.476;19.102;2023-09-19T01:43:50;96975.84;;;18.31;83.83
79028;BME280;68427;48.476;19.102;2023-09-19T01:46:21;96980.84;;;18.27;82.71
79028;BME280;68427;48.476;19.102;2023-09-19T01:49:01;96977.34;;;18.22;83.80
79028;BME280;68427;48.476;19.102;2023-09-19T01:51:34;96977.91;;;18.24;81.04
79028;BME280;68427;48.476;19.102;2023-09-19T01:54:06;96981.88;;;18.21;83.62
79028;BME280;68427;48.476;19.102;2023-09-19T01:56:37;96977.59;;;18.20;82.66
79028;BME280;68427;48.476;19.102;2023-09-19T01:59:07;96982.34;;;18.18;82.45
79028;BME280;68427;48.476;19.102;2023-09-19T02:01:34;96976.78;;;18.14;83.19
79028;BME280;68427;48.476;19.102;2023-09-19T02:04:04;96971.72;;;18.13;82.19
79028;BME280;68427;48.476;19.102;2023-09-19T02:06:30;96968.56;;;18.11;83.12
79028;BME280;68427;48.476;19.102;2023-09-19T02:08:55;96954.78;;;18.14;83.04
79028;BME280;68427;48.476;19.102;2023-09-19T02:11:21;96954.78;;;18.14;83.16
79028;BME280;68427;48.476;19.102;2023-09-19T02:13:47;96957.13;;;18.10;82.56
79028;BME280;68427;48.476;19.102;2023-09-19T02:16:13;96963.50;;;18.09;83.85
79028;BME280;68427;48.476;19.102;2023-09-19T02:18:42;96958.72;;;18.06;83.49
79028;BME280;68427;48.476;19.102;2023-09-19T02:21:09;96964.28;;;18.10;83.58
79028;BME280;68427;48.476;19.102;2023-09-19T02:23:37;96964.28;;;18.10;84.01
79028;BME280;68427;48.476;19.102;2023-09-19T02:26:04;96958.44;;;18.08;84.37
79028;BME280;68427;48.476;19.102;2023-09-19T02:28:30;96960.03;;;18.04;84.31
79028;BME280;68427;48.476;19.102;2023-09-19T02:30:57;96960.28;;;18.02;84.68
79028;BME280;68427;48.476;19.102;2023-09-19T02:33:23;96966.38;;;18.03;84.04
79028;BME280;68427;48.476;19.102;2023-09-19T02:35:49;96958.91;;;17.95;84.84
79028;BME280;68427;48.476;19.102;2023-09-19T02:38:17;96960.25;;;17.97;84.42
79028;BME280;68427;48.476;19.102;2023-09-19T02:40:47;96956.25;;;17.95;84.56
79028;BME280;68427;48.476;19.102;2023-09-19T02:43:12;96944.59;;;17.96;83.57
79028;BME280;68427;48.476;19.102;2023-09-19T02:45:38;96934.53;;;17.98;84.39
79028;BME280;68427;48.476;19.102;2023-09-19T02:48:04;96940.66;;;17.98;84.44
79028;BME280;68427;48.476;19.102;2023-09-19T02:50:30;96936.69;;;18.01;83.62
79028;BME280;68427;48.476;19.102;2023-09-19T02:52:56;96921.06;;;18.04;81.82
79028;BME280;68427;48.476;19.102;2023-09-19T02:55:23;96938.56;;;18.05;82.94
79028;BME280;68427;48.476;19.102;2023-09-19T02:57:49;96942.03;;;18.06;82.68
79028;BME280;68427;48.476;19.102;2023-09-19T03:00:16;96941.47;;;18.04;82.72
79028;BME280;68427;48.476;19.102;2023-09-19T03:02:46;96934.56;;;18.03;82.48
79028;BME280;68427;48.476;19.102;2023-09-19T03:05:12;96944.38;;;18.02;82.79
79028;BME280;68427;48.476;19.102;2023-09-19T03:07:38;96942.78;;;18.01;83.46
79028;BME280;68427;48.476;19.102;2023-09-19T03:10:04;96943.81;;;18.00;83.04
79028;BME280;68427;48.476;19.102;2023-09-19T03:12:32;96941.72;;;18.02;82.47
79028;BME280;68427;48.476;19.102;2023-09-19T03:14:59;96940.69;;;18.03;82.32
79028;BME280;68427;48.476;19.102;2023-09-19T03:17:25;96937.75;;;18.05;83.09
79028;BME280;68427;48.476;19.102;2023-09-19T03:19:50;96938.81;;;18.04;84.16
79028;BME280;68427;48.476;19.102;2023-09-19T03:22:16;96936.19;;;18.04;84.45
79028;BME280;68427;48.476;19.102;2023-09-19T03:24:43;96936.19;;;18.04;84.00
79028;BME280;68427;48.476;19.102;2023-09-19T03:27:10;96931.91;;;18.03;83.20
79028;BME280;68427;48.476;19.102;2023-09-19T03:29:37;96929.81;;;18.05;84.00
79028;BME280;68427;48.476;19.102;2023-09-19T03:32:04;96931.41;;;18.06;84.24
79028;BME280;68427;48.476;19.102;2023-09-19T03:34:30;96930.88;;;18.04;84.39
79028;BME280;68427;48.476;19.102;2023-09-19T03:36:56;96929.81;;;18.05;83.64
79028;BME280;68427;48.476;19.102;2023-09-19T03:39:22;96925.81;;;18.02;83.96
79028;BME280;68427;48.476;19.102;2023-09-19T03:41:48;96934.56;;;18.03;84.64
79028;BME280;68427;48.476;19.102;2023-09-19T03:44:15;96906.75;;;18.05;82.43
79028;BME280;68427;48.476;19.102;2023-09-19T03:46:42;96915.00;;;18.09;83.62
79028;BME280;68427;48.476;19.102;2023-09-19T03:49:07;96905.44;;;18.08;83.85
79028;BME280;68427;48.476;19.102;2023-09-19T03:51:34;96910.72;;;18.08;84.00
79028;BME280;68427;48.476;19.102;2023-09-19T03:54:00;96916.59;;;18.10;82.81
79028;BME280;68427;48.476;19.102;2023-09-19T03:56:26;96918.19;;;18.11;83.73
79028;BME280;68427;48.476;19.102;2023-09-19T03:58:51;96919.22;;;18.10;84.81
79028;BME280;68427;48.476;19.102;2023-09-19T04:01:17;96920.31;;;18.09;84.86
79028;BME280;68427;48.476;19.102;2023-09-19T04:03:45;96920.31;;;18.09;85.15
79028;BME280;68427;48.476;19.102;2023-09-19T04:06:12;96929.56;;;18.06;84.93
79028;BME280;68427;48.476;19.102;2023-09-19T04:08:38;96927.69;;;18.07;85.37
79028;BME280;68427;48.476;19.102;2023-09-19T04:11:04;96924.25;;;18.06;84.87
79028;BME280;68427;48.476;19.102;2023-09-19T04:13:29;96930.09;;;18.03;86.25
79028;BME280;68427;48.476;19.102;2023-09-19T04:15:55;96930.28;;;17.97;85.99
79028;BME280;68427;48.476;19.102;2023-09-19T04:18:22;96930.53;;;17.95;86.05
79028;BME280;68427;48.476;19.102;2023-09-19T04:20:50;96935.03;;;17.89;86.91
79028;BME280;68427;48.476;19.102;2023-09-19T04:23:16;96937.91;;;17.88;87.94
79028;BME280;68427;48.476;19.102;2023-09-19T04:25:42;96938.94;;;17.82;87.61
79028;BME280;68427;48.476;19.102;2023-09-19T04:28:08;96935.16;;;17.78;88.89
79028;BME280;68427;48.476;19.102;2023-09-19T04:30:35;96938.09;;;17.76;88.91
79028;BME280;68427;48.476;19.102;2023-09-19T04:33:01;96946.81;;;17.77;89.07
79028;BME280;68427;48.476;19.102;2023-09-19T04:35:28;96946.59;;;17.78;88.82
79028;BME280;68427;48.476;19.102;2023-09-19T04:37:58;96953.72;;;17.78;89.71
79028;BME280;68427;48.476;19.102;2023-09-19T04:40:24;96953.19;;;17.76;88.30
79028;BME280;68427;48.476;19.102;2023-09-19T04:42:53;96952.09;;;17.71;88.80
79028;BME280;68427;48.476;19.102;2023-09-19T04:45:22;96965.34;;;17.71;89.31
79028;BME280;68427;48.476;19.102;2023-09-19T04:47:48;96960.78;;;17.67;89.63
79028;BME280;68427;48.476;19.102;2023-09-19T04:50:13;96970.00;;;17.59;90.62
79028;BME280;68427;48.476;19.102;2023-09-19T04:52:40;96961.81;;;17.61;91.02
79028;BME280;68427;48.476;19.102;2023-09-19T04:55:09;96973.16;;;17.56;91.70
79028;BME280;68427;48.476;19.102;2023-09-19T04:57:36;96968.16;;;17.60;91.96
79028;BME280;68427;48.476;19.102;2023-09-19T05:00:02;96973.72;;;17.58;92.07
79028;BME280;68427;48.476;19.102;2023-09-19T05:02:32;96969.22;;;17.59;92.12
79028;BME280;68427;48.476;19.102;2023-09-19T05:04:59;96974.50;;;17.59;92.58
79028;BME280;68427;48.476;19.102;2023-09-19T05:07:25;96969.22;;;17.59;92.41
79028;BME280;68427;48.476;19.102;2023-09-19T05:09:51;96965.22;;;17.56;92.34
79028;BME280;68427;48.476;19.102;2023-09-19T05:12:18;96980.50;;;17.49;93.11
79028;BME280;68427;48.476;19.102;2023-09-19T05:14:45;96974.97;;;17.51;93.04
79028;BME280;68427;48.476;19.102;2023-09-19T05:17:10;96974.16;;;17.50;93.30
79028;BME280;68427;48.476;19.102;2023-09-19T05:19:36;96978.63;;;17.44;93.65
79028;BME280;68427;48.476;19.102;2023-09-19T05:22:02;96974.66;;;17.47;93.56
79028;BME280;68427;48.476;19.102;2023-09-19T05:24:29;96979.97;;;17.47;93.71
79028;BME280;68427;48.476;19.102;2023-09-19T05:26:56;96969.59;;;17.45;93.64
79028;BME280;68427;48.476;19.102;2023-09-19T05:29:23;96973.13;;;17.51;93.21
79028;BME280;68427;48.476;19.102;2023-09-19T05:31:49;96967.81;;;17.51;93.47
79028;BME280;68427;48.476;19.102;2023-09-19T05:34:15;96964.91;;;17.53;93.21
79028;BME280;68427;48.476;19.102;2023-09-19T05:36:42;96965.97;;;17.52;93.20
79028;BME280;68427;48.476;19.102;2023-09-19T05:39:08;96963.88;;;17.54;93.83
79028;BME280;68427;48.476;19.102;2023-09-19T05:41:35;96963.09;;;17.53;93.77
79028;BME280;68427;48.476;19.102;2023-09-19T05:44:02;96962.59;;;17.61;93.90
79028;BME280;68427;48.476;19.102;2023-09-19T05:46:29;96966.81;;;17.57;93.23
79028;BME280;68427;48.476;19.102;2023-09-19T05:48:55;96967.31;;;17.54;93.77
79028;BME280;68427;48.476;19.102;2023-09-19T05:51:22;96968.06;;;17.49;93.77
79028;BME280;68427;48.476;19.102;2023-09-19T05:53:48;96968.06;;;17.49;94.09
79028;BME280;68427;48.476;19.102;2023-09-19T05:56:14;96976.00;;;17.49;94.07
79028;BME280;68427;48.476;19.102;2023-09-19T05:58:40;96964.06;;;17.47;93.88
79028;BME280;68427;48.476;19.102;2023-09-19T06:01:08;96970.44;;;17.46;94.13
79028;BME280;68427;48.476;19.102;2023-09-19T06:03:36;96965.09;;;17.41;94.83
79028;BME280;68427;48.476;19.102;2023-09-19T06:06:02;96964.03;;;17.42;94.39
79028;BME280;68427;48.476;19.102;2023-09-19T06:08:27;96969.88;;;17.44;94.53
79028;BME280;68427;48.476;19.102;2023-09-19T06:10:54;96974.09;;;17.45;94.31
79028;BME280;68427;48.476;19.102;2023-09-19T06:13:20;96971.81;;;17.54;93.81
79028;BME280;68427;48.476;19.102;2023-09-19T06:15:45;96983.47;;;17.58;93.62
79028;BME280;68427;48.476;19.102;2023-09-19T06:18:12;96983.25;;;17.59;93.13
79028;BME280;68427;48.476;19.102;2023-09-19T06:20:46;96992.78;;;17.60;93.65
79028;BME280;68427;48.476;19.102;2023-09-19T06:23:12;96992.53;;;17.62;94.25
79028;BME280;68427;48.476;19.102;2023-09-19T06:25:38;96993.88;;;17.64;93.56
79028;BME280;68427;48.476;19.102;2023-09-19T06:28:04;96994.97;;;17.68;93.81
79028;BME280;68427;48.476;19.102;2023-09-19T06:30:31;97004.56;;;17.75;93.79
79028;BME280;68427;48.476;19.102;2023-09-19T06:32:58;97005.09;;;17.77;93.60
79028;BME280;68427;48.476;19.102;2023-09-19T06:35:24;97012.56;;;17.80;93.19
79028;BME280;68427;48.476;19.102;2023-09-19T06:37:53;97009.69;;;17.81;93.12
79028;BME280;68427;48.476;19.102;2023-09-19T06:40:18;97012.09;;;17.88;92.37
79028;BME280;68427;48.476;19.102;2023-09-19T06:42:47;97009.00;;;17.96;91.92
79028;BME280;68427;48.476;19.102;2023-09-19T06:45:14;97019.38;;;18.03;91.52
79028;BME280;68427;48.476;19.102;2023-09-19T06:47:43;97021.50;;;18.01;91.77
79028;BME280;68427;48.476;19.102;2023-09-19T06:50:09;97027.28;;;17.98;92.26
79028;BME280;68427;48.476;19.102;2023-09-19T06:52:39;97025.47;;;17.98;92.35
79028;BME280;68427;48.476;19.102;2023-09-19T06:55:07;97040.06;;;18.01;93.09
79028;BME280;68427;48.476;19.102;2023-09-19T06:57:35;97037.09;;;17.97;92.31
79028;BME280;68427;48.476;19.102;2023-09-19T07:00:00;97036.06;;;17.98;92.29
79028;BME280;68427;48.476;19.102;2023-09-19T07:02:27;97041.28;;;17.93;92.86
79028;BME280;68427;48.476;19.102;2023-09-19T07:04:52;97039.94;;;17.90;93.58
79028;BME280;68427;48.476;19.102;2023-09-19T07:07:18;97052.66;;;17.88;94.31
79028;BME280;68427;48.476;19.102;2023-09-19T07:09:44;97048.34;;;17.82;94.16
79028;BME280;68427;48.476;19.102;2023-09-19T07:12:11;97056.78;;;17.79;94.53
79028;BME280;68427;48.476;19.102;2023-09-19T07:14:37;97057.41;;;17.86;94.79
79028;BME280;68427;48.476;19.102;2023-09-19T07:17:03;97061.66;;;17.87;93.95
79028;BME280;68427;48.476;19.102;2023-09-19T07:19:29;97064.56;;;17.86;89.53
79028;BME280;68427;48.476;19.102;2023-09-19T07:21:56;97070.94;;;17.90;90.53
79028;BME280;68427;48.476;19.102;2023-09-19T07:24:24;97075.44;;;17.89;90.07
79028;BME280;68427;48.476;19.102;2023-09-19T07:26:52;97075.69;;;17.88;90.18
79028;BME280;68427;48.476;19.102;2023-09-19T07:29:20;97083.63;;;17.88;90.45
79028;BME280;68427;48.476;19.102;2023-09-19T07:31:45;97073.31;;;17.86;88.47
79028;BME280;68427;48.476;19.102;2023-09-19T07:34:12;97071.69;;;17.85;87.86
79028;BME280;68427;48.476;19.102;2023-09-19T07:36:39;97073.03;;;17.88;88.26
79028;BME280;68427;48.476;19.102;2023-09-19T07:39:06;97086.41;;;17.98;87.78
79028;BME280;68427;48.476;19.102;2023-09-19T07:41:32;97089.28;;;17.97;87.69
79028;BME280;68427;48.476;19.102;2023-09-19T07:43:58;97095.31;;;17.87;86.93
79028;BME280;68427;48.476;19.102;2023-09-19T07:46:25;97096.66;;;17.89;87.32
79028;BME280;68427;48.476;19.102;2023-09-19T07:48:51;97095.53;;;17.85;87.57
79028;BME280;68427;48.476;19.102;2023-09-19T07:51:17;97090.00;;;17.87;87.07
79028;BME280;68427;48.476;19.102;2023-09-19T07:53:43;97098.00;;;17.92;87.26
79028;BME280;68427;48.476;19.102;2023-09-19T07:56:10;97104.44;;;18.01;86.80
79028;BME280;68427;48.476;19.102;2023-09-19T07:58:38;97109.78;;;18.06;86.81
79028;BME280;68427;48.476;19.102;2023-09-19T08:01:04;97109.53;;;18.08;86.24
79028;BME280;68427;48.476;19.102;2023-09-19T08:03:32;97121.69;;;18.04;86.35
79028;BME280;68427;48.476;19.102;2023-09-19T08:05:58;97127.56;;;18.06;87.02
79028;BME280;68427;48.476;19.102;2023-09-19T08:08:24;97137.00;;;17.97;85.87
79028;BME280;68427;48.476;19.102;2023-09-19T08:10:53;97141.25;;;17.98;86.76
79028;BME280;68427;48.476;19.102;2023-09-19T08:13:18;97142.53;;;17.95;87.05
79028;BME280;68427;48.476;19.102;2023-09-19T08:15:45;97150.38;;;17.85;86.44
79028;BME280;68427;48.476;19.102;2023-09-19T08:18:11;97157.25;;;17.81;86.70
79028;BME280;68427;48.476;19.102;2023-09-19T08:20:42;97160.19;;;17.84;87.20
79028;BME280;68427;48.476;19.102;2023-09-19T08:23:09;97162.91;;;17.89;87.34
79028;BME280;68427;48.476;19.102;2023-09-19T08:25:37;97158.19;;;17.97;87.09
79028;BME280;68427;48.476;19.102;2023-09-19T08:28:07;97151.19;;;18.12;87.91
79028;BME280;68427;48.476;19.102;2023-09-19T08:30:39;97156.94;;;18.31;87.37
79028;BME280;68427;48.476;19.102;2023-09-19T08:33:06;97157.03;;;18.47;86.54
79028;BME280;68427;48.476;19.102;2023-09-19T08:35:33;97157.41;;;18.61;86.42
79028;BME280;68427;48.476;19.102;2023-09-19T08:38:00;97165.94;;;18.68;86.46
79028;BME280;68427;48.476;19.102;2023-09-19T08:40:29;97154.06;;;18.75;85.39
79028;BME280;68427;48.476;19.102;2023-09-19T08:42:59;97154.41;;;18.84;84.61
79028;BME280;68427;48.476;19.102;2023-09-19T08:45:26;97161.66;;;18.99;83.09
79028;BME280;68427;48.476;19.102;2023-09-19T08:48:03;97157.72;;;19.07;82.82
79028;BME280;68427;48.476;19.102;2023-09-19T08:50:41;97165.94;;;19.05;83.26
79028;BME280;68427;48.476;19.102;2023-09-19T08:53:10;97167.81;;;19.10;82.47
79028;BME280;68427;48.476;19.102;2023-09-19T08:55:39;97164.13;;;19.16;82.01
79028;BME280;68427;48.476;19.102;2023-09-19T08:58:10;97168.41;;;19.17;82.35
79028;BME280;68427;48.476;19.102;2023-09-19T09:00:36;97174.25;;;19.19;82.68
79028;BME280;68427;48.476;19.102;2023-09-19T09:03:03;97181.88;;;19.05;82.68
79028;BME280;68427;48.476;19.102;2023-09-19T09:05:32;97187.88;;;18.90;81.84
79028;BME280;68427;48.476;19.102;2023-09-19T09:08:02;97191.66;;;18.99;83.18
79028;BME280;68427;48.476;19.102;2023-09-19T09:10:33;97187.16;;;19.00;82.08
79028;BME280;68427;48.476;19.102;2023-09-19T09:12:59;97192.50;;;19.05;83.96
79028;BME280;68427;48.476;19.102;2023-09-19T09:15:25;97190.91;;;19.04;82.33
79028;BME280;68427;48.476;19.102;2023-09-19T09:17:51;97191.94;;;19.03;81.90
79028;BME280;68427;48.476;19.102;2023-09-19T09:20:21;97201.25;;;19.06;81.69
79028;BME280;68427;48.476;19.102;2023-09-19T09:22:51;97204.47;;;19.13;80.84
79028;BME280;68427;48.476;19.102;2023-09-19T09:25:18;97210.06;;;19.11;81.62
79028;BME280;68427;48.476;19.102;2023-09-19T09:27:45;97208.22;;;19.17;81.16
79028;BME280;68427;48.476;19.102;2023-09-19T09:30:32;97203.94;;;19.11;80.65
79028;BME280;68427;48.476;19.102;2023-09-19T09:33:08;97204.78;;;19.16;81.14
79028;BME280;68427;48.476;19.102;2023-09-19T09:35:39;97205.84;;;19.20;79.07
79028;BME280;68427;48.476;19.102;2023-09-19T09:38:12;97209.88;;;19.28;79.56
79028;BME280;68427;48.476;19.102;2023-09-19T09:40:46;97222.09;;;19.29;80.72
79028;BME280;68427;48.476;19.102;2023-09-19T09:43:26;97221.63;;;19.37;79.92
79028;BME280;68427;48.476;19.102;2023-09-19T09:46:08;97224.84;;;19.45;80.18
79028;BME280;68427;48.476;19.102;2023-09-19T09:49:01;97222.19;;;19.45;81.53
79028;BME280;68427;48.476;19.102;2023-09-19T09:51:39;97220.13;;;19.57;81.04
79028;BME280;68427;48.476;19.102;2023-09-19T09:54:11;97220.69;;;19.64;79.55
79028;BME280;68427;48.476;19.102;2023-09-19T09:56:54;97219.16;;;19.78;79.62
79028;BME280;68427;48.476;19.102;2023-09-19T09:59:44;97223.72;;;19.93;78.46
79028;BME280;68427;48.476;19.102;2023-09-19T10:02:13;97220.84;;;20.15;76.33
79028;BME280;68427;48.476;19.102;2023-09-19T10:04:39;97221.41;;;20.43;75.84
79028;BME280;68427;48.476;19.102;2023-09-19T10:07:26;97223.00;;;20.34;74.99
79028;BME280;68427;48.476;19.102;2023-09-19T10:09:53;97224.34;;;20.41;74.60
79028;BME280;68427;48.476;19.102;2023-09-19T10:12:25;97225.94;;;20.42;74.12
79028;BME280;68427;48.476;19.102;2023-09-19T10:14:57;97237.13;;;20.34;72.83
79028;BME280;68427;48.476;19.102;2023-09-19T10:17:26;97236.09;;;20.56;73.16
79028;BME280;68427;48.476;19.102;2023-09-19T10:19:55;97238.75;;;20.61;73.70
79028;BME280;68427;48.476;19.102;2023-09-19T10:22:24;97239.59;;;20.77;72.69
79028;BME280;68427;48.476;19.102;2023-09-19T10:24:57;97234.25;;;20.82;73.56
79028;BME280;68427;48.476;19.102;2023-09-19T10:27:26;97233.44;;;21.02;71.52
79028;BME280;68427;48.476;19.102;2023-09-19T10:29:52;97232.34;;;21.08;69.05
79028;BME280;68427;48.476;19.102;2023-09-19T10:32:25;97226.72;;;21.25;69.19
79028;BME280;68427;48.476;19.102;2023-09-19T10:34:53;97222.50;;;21.08;68.61
79028;BME280;68427;48.476;19.102;2023-09-19T10:37:23;97222.25;;;21.00;67.92
79028;BME280;68427;48.476;19.102;2023-09-19T10:39:51;97227.25;;;21.27;68.75
79028;BME280;68427;48.476;19.102;2023-09-19T10:42:19;97229.38;;;21.35;69.69
79028;BME280;68427;48.476;19.102;2023-09-19T10:44:47;97221.63;;;21.33;66.54
79028;BME280;68427;48.476;19.102;2023-09-19T10:47:19;97218.97;;;21.33;67.67
79028;BME280;68427;48.476;19.102;2023-09-19T10:49:46;97217.38;;;21.43;67.89
79028;BME280;68427;48.476;19.102;2023-09-19T10:52:14;97218.88;;;21.64;66.35
79028;BME280;68427;48.476;19.102;2023-09-19T10:54:46;97215.13;;;21.75;66.54
79028;BME280;68427;48.476;19.102;2023-09-19T10:57:19;97211.28;;;21.92;65.75
79028;BME280;68427;48.476;19.102;2023-09-19T11:00:01;97224.13;;;21.90;65.43
79028;BME280;68427;48.476;19.102;2023-09-19T11:02:28;97223.16;;;22.25;63.60
79028;BME280;68427;48.476;19.102;2023-09-19T11:05:11;97221.00;;;22.61;63.67
79028;BME280;68427;48.476;19.102;2023-09-19T11:07:56;97217.38;;;23.16;62.32
79028;BME280;68427;48.476;19.102;2023-09-19T11:10:46;97212.34;;;23.57;57.92
79028;BME280;68427;48.476;19.102;2023-09-19T11:13:25;97218.06;;;23.75;59.27
79028;BME280;68427;48.476;19.102;2023-09-19T11:16:17;97223.41;;;23.50;58.11
79028;BME280;68427;48.476;19.102;2023-09-19T11:18:52;97214.69;;;23.16;57.86
79028;BME280;68427;48.476;19.102;2023-09-19T11:21:42;97215.84;;;23.34;58.37
79028;BME280;68427;48.476;19.102;2023-09-19T11:24:30;97215.38;;;23.26;58.01
79028;BME280;68427;48.476;19.102;2023-09-19T11:27:13;97225.78;;;23.52;59.14
79028;BME280;68427;48.476;19.102;2023-09-19T11:29:40;97232.59;;;23.87;56.47
79028;BME280;68427;48.476;19.102;2023-09-19T11:32:06;97224.09;;;23.85;55.42
79028;BME280;68427;48.476;19.102;2023-09-19T11:34:40;97231.44;;;23.75;56.03
79028;BME280;68427;48.476;19.102;2023-09-19T11:40:29;97218.56;;;23.28;56.39
79028;BME280;68427;48.476;19.102;2023-09-19T11:42:56;97221.81;;;23.25;56.40
79028;BME280;68427;48.476;19.102;2023-09-19T11:48:27;97226.47;;;22.80;60.17
79028;BME280;68427;48.476;19.102;2023-09-19T11:50:53;97227.00;;;22.48;59.85
79028;BME280;68427;48.476;19.102;2023-09-19T11:53:21;97220.53;;;22.20;60.05
79028;BME280;68427;48.476;19.102;2023-09-19T11:55:49;97219.28;;;21.97;61.23
79028;BME280;68427;48.476;19.102;2023-09-19T11:58:16;97217.53;;;21.77;61.64
79028;BME280;68427;48.476;19.102;2023-09-19T12:00:44;97215.38;;;21.74;61.69
79028;BME280;68427;48.476;19.102;2023-09-19T12:03:11;97218.59;;;21.76;62.13
79028;BME280;68427;48.476;19.102;2023-09-19T12:05:39;97223.19;;;21.60;62.38
79028;BME280;68427;48.476;19.102;2023-09-19T12:08:05;97232.25;;;21.54;63.07
79028;BME280;68427;48.476;19.102;2023-09-19T12:10:45;97232.00;;;21.50;63.43
79028;BME280;68427;48.476;19.102;2023-09-19T12:13:16;97231.22;;;21.50;64.87
79028;BME280;68427;48.476;19.102;2023-09-19T12:15:43;97238.69;;;21.38;63.98
79028;BME280;68427;48.476;19.102;2023-09-19T12:18:25;97236.28;;;21.46;64.34
79028;BME280;68427;48.476;19.102;2023-09-19T12:20:51;97250.94;;;21.44;64.95
79028;BME280;68427;48.476;19.102;2023-09-19T12:23:17;97247.75;;;21.42;65.27
79028;BME280;68427;48.476;19.102;2023-09-19T12:25:45;97248.56;;;21.37;64.60
79028;BME280;68427;48.476;19.102;2023-09-19T12:28:13;97249.38;;;21.43;64.87
79028;BME280;68427;48.476;19.102;2023-09-19T12:30:41;97257.06;;;21.44;64.24
79028;BME280;68427;48.476;19.102;2023-09-19T12:33:15;97257.63;;;21.41;64.93
79028;BME280;68427;48.476;19.102;2023-09-19T12:35:41;97252.56;;;21.40;65.62
79028;BME280;68427;48.476;19.102;2023-09-19T12:38:09;97257.09;;;21.39;63.84
79028;BME280;68427;48.476;19.102;2023-09-19T12:40:35;97262.66;;;21.48;65.00
79028;BME280;68427;48.476;19.102;2023-09-19T12:43:04;97267.19;;;21.52;64.34
79028;BME280;68427;48.476;19.102;2023-09-19T12:45:31;97273.06;;;21.49;64.17
79028;BME280;68427;48.476;19.102;2023-09-19T12:48:20;97266.41;;;21.42;63.57
79028;BME280;68427;48.476;19.102;2023-09-19T12:51:00;97277.59;;;21.49;64.13
79028;BME280;68427;48.476;19.102;2023-09-19T12:53:31;97268.78;;;21.48;63.83
79028;BME280;68427;48.476;19.102;2023-09-19T12:55:59;97264.53;;;21.37;65.62
79028;BME280;68427;48.476;19.102;2023-09-19T12:58:25;97274.94;;;21.39;63.81
79028;BME280;68427;48.476;19.102;2023-09-19T13:00:51;97268.25;;;21.46;63.62
79028;BME280;68427;48.476;19.102;2023-09-19T13:03:18;97272.78;;;21.35;63.74
79028;BME280;68427;48.476;19.102;2023-09-19T13:05:53;97278.13;;;21.35;63.80